Wetterstation Vordersexau
Wetterdaten: Woche 07.10.13 - 13.10.13 (KW41)
Datum Zeit Temp. A. Feuchte A. Luftdruck Regen Wind Richtung Taupunkt Windchill Windben
07.10.2013 00:00 11,9 C 78 % 1022,8 hPa 0,0 l/m 0,0 km/h N-NW 8,2 C 11,9 C 0,0 km/h
07.10.2013 01:00 11,5 C 78 % 1022,6 hPa 0,0 l/m 0,0 km/h N-NW 7,8 C 11,5 C 0,0 km/h
07.10.2013 02:00 11,6 C 77 % 1022,6 hPa 0,0 l/m 0,0 km/h N-NW 7,7 C 11,6 C 0,0 km/h
07.10.2013 03:00 11,7 C 77 % 1022,4 hPa 0,0 l/m 0,0 km/h N-NW 7,8 C 11,7 C 0,0 km/h
07.10.2013 04:00 11,5 C 76 % 1022,1 hPa 0,0 l/m 0,0 km/h N-NW 7,4 C 11,5 C 0,0 km/h
07.10.2013 05:00 11,2 C 76 % 1022,1 hPa 0,0 l/m 0,0 km/h N-NW 7,1 C 11,2 C 0,0 km/h
07.10.2013 06:00 8,6 C 78 % 1022,2 hPa 0,0 l/m 0,0 km/h N-NW 5,0 C 8,6 C 0,0 km/h
07.10.2013 07:00 10,1 C 74 % 1022,2 hPa 0,0 l/m 0,0 km/h N-NW 5,7 C 10,1 C 0,0 km/h
07.10.2013 08:00 10,6 C 72 % 1022,2 hPa 0,0 l/m 0,0 km/h N-NW 5,8 C 10,6 C 0,0 km/h
07.10.2013 09:00 12,0 C 69 % 1022,4 hPa 0,0 l/m 0,0 km/h S-SO 6,5 C 12,0 C 0,0 km/h
07.10.2013 10:00 14,3 C 82 % 1022,3 hPa 0,0 l/m 0,0 km/h W-NW 11,3 C 14,3 C 0,0 km/h
07.10.2013 11:00 19,2 C 74 % 1022,3 hPa 0,0 l/m 0,0 km/h W-NW 14,4 C 19,2 C 0,0 km/h
07.10.2013 12:00 17,5 C 74 % 1022,2 hPa 0,0 l/m 0,0 km/h O-SO 12,8 C 17,5 C 0,0 km/h
07.10.2013 13:00 18,1 C 71 % 1021,8 hPa 0,0 l/m 0,0 km/h NO 12,8 C 18,1 C 0,0 km/h
07.10.2013 14:00 17,3 C 72 % 1021,5 hPa 0,0 l/m 0,0 km/h O 12,2 C 17,3 C 0,0 km/h
07.10.2013 15:00 18,1 C 67 % 1021,6 hPa 0,0 l/m 0,0 km/h O-NO 11,9 C 18,1 C 0,0 km/h
07.10.2013 16:00 17,9 C 67 % 1021,5 hPa 0,0 l/m 0,0 km/h O-SO 11,7 C 17,9 C 0,0 km/h
07.10.2013 17:00 18,2 C 66 % 1021,1 hPa 0,0 l/m 0,0 km/h NO 11,7 C 18,2 C 0,0 km/h
07.10.2013 18:00 15,8 C 78 % 1021,2 hPa 0,0 l/m 3,2 km/h NO 12,0 C 15,8 C 1,8 km/h
07.10.2013 19:00 14,3 C 83 % 1021,5 hPa 0,0 l/m 0,0 km/h NO 11,5 C 14,3 C 0,0 km/h
07.10.2013 20:00 12,8 C 83 % 1021,8 hPa 0,0 l/m 0,0 km/h NO 10,0 C 12,8 C 0,0 km/h
07.10.2013 21:00 12,5 C 84 % 1022,0 hPa 0,0 l/m 0,0 km/h NO 9,9 C 12,5 C 0,0 km/h
07.10.2013 22:00 13,1 C 83 % 1021,6 hPa 0,0 l/m 0,0 km/h S-SW 10,3 C 13,1 C 0,0 km/h
07.10.2013 23:00 12,9 C 83 % 1021,8 hPa 0,0 l/m 1,9 km/h S-SO 10,1 C 12,9 C 1,1 km/h
08.10.2013 00:00 12,6 C 84 % 1021,7 hPa 0,0 l/m 0,0 km/h NO 10,0 C 12,6 C 0,0 km/h
08.10.2013 01:00 12,5 C 84 % 1021,7 hPa 0,0 l/m 0,0 km/h SO 9,9 C 12,5 C 0,0 km/h
08.10.2013 02:00 12,3 C 84 % 1021,5 hPa 0,0 l/m 0,0 km/h W-NW 9,7 C 12,3 C 0,0 km/h
08.10.2013 03:00 11,8 C 83 % 1021,5 hPa 0,0 l/m 0,0 km/h W-NW 9,0 C 11,8 C 0,0 km/h
08.10.2013 04:00 11,3 C 82 % 1021,3 hPa 0,0 l/m 0,0 km/h NW 8,3 C 11,3 C 0,0 km/h
08.10.2013 05:00 11,3 C 81 % 1021,4 hPa 0,0 l/m 0,0 km/h W-NW 8,2 C 11,3 C 0,0 km/h
08.10.2013 06:00 11,1 C 80 % 1021,2 hPa 0,0 l/m 0,0 km/h NW 7,8 C 11,1 C 0,0 km/h
08.10.2013 07:00 11,2 C 79 % 1021,1 hPa 0,0 l/m 0,0 km/h W-NW 7,7 C 11,2 C 0,0 km/h
08.10.2013 08:00 11,3 C 77 % 1021,6 hPa 0,0 l/m 0,0 km/h W-NW 7,4 C 11,3 C 0,0 km/h
08.10.2013 09:00 11,6 C 76 % 1021,8 hPa 0,0 l/m 0,0 km/h W-NW 7,5 C 11,6 C 0,0 km/h
08.10.2013 10:00 12,2 C 78 % 1022,1 hPa 0,0 l/m 0,0 km/h W-NW 8,5 C 12,2 C 0,0 km/h
08.10.2013 11:00 13,5 C 82 % 1022,4 hPa 0,0 l/m 0,0 km/h W-SW 10,5 C 13,5 C 0,0 km/h
08.10.2013 12:00 14,1 C 84 % 1022,2 hPa 0,0 l/m 0,0 km/h NW 11,4 C 14,1 C 0,0 km/h
08.10.2013 13:00 15,4 C 82 % 1021,7 hPa 0,0 l/m 0,0 km/h NW 12,3 C 15,4 C 0,0 km/h
08.10.2013 14:00 14,9 C 82 % 1021,6 hPa 0,0 l/m 5,8 km/h W-SW 11,9 C 14,9 C 3,2 km/h
08.10.2013 15:00 14,5 C 83 % 1021,7 hPa 0,0 l/m 0,0 km/h NW 11,6 C 14,5 C 0,0 km/h
08.10.2013 16:00 14,4 C 83 % 1021,7 hPa 0,0 l/m 0,0 km/h W-NW 11,5 C 14,4 C 0,0 km/h
08.10.2013 17:00 13,9 C 84 % 1021,5 hPa 0,0 l/m 1,3 km/h W-NW 11,2 C 13,9 C 0,7 km/h
08.10.2013 18:00 13,3 C 84 % 1021,6 hPa 0,0 l/m 0,0 km/h W-NW 10,7 C 13,3 C 0,0 km/h
08.10.2013 19:00 12,9 C 84 % 1022,1 hPa 0,0 l/m 0,0 km/h W-NW 10,3 C 12,9 C 0,0 km/h
08.10.2013 20:00 12,5 C 83 % 1022,5 hPa 0,0 l/m 0,0 km/h W-NW 9,7 C 12,5 C 0,0 km/h
08.10.2013 21:00 12,2 C 82 % 1022,6 hPa 0,0 l/m 0,0 km/h SW 9,2 C 12,2 C 0,0 km/h
08.10.2013 22:00 12,4 C 81 % 1022,5 hPa 0,0 l/m 0,0 km/h S-SW 9,2 C 12,4 C 0,0 km/h
08.10.2013 23:00 12,2 C 79 % 1022,5 hPa 0,0 l/m 0,0 km/h S-SW 8,7 C 12,2 C 0,0 km/h
09.10.2013 00:00 12,1 C 78 % 1022,5 hPa 0,0 l/m 0,0 km/h S-SW 8,4 C 12,1 C 0,0 km/h
09.10.2013 01:00 11,8 C 79 % 1022,1 hPa 0,0 l/m 0,0 km/h S-SW 8,3 C 11,8 C 0,0 km/h
09.10.2013 02:00 11,7 C 78 % 1022,2 hPa 0,0 l/m 0,0 km/h S-SW 8,0 C 11,7 C 0,0 km/h
09.10.2013 03:00 11,8 C 76 % 1021,9 hPa 0,0 l/m 0,0 km/h S-SW 7,7 C 11,8 C 0,0 km/h
09.10.2013 04:00 11,6 C 76 % 1021,3 hPa 0,0 l/m 0,0 km/h S-SW 7,5 C 11,6 C 0,0 km/h
09.10.2013 05:00 11,5 C 75 % 1021,1 hPa 0,0 l/m 0,0 km/h S-SW 7,2 C 11,5 C 0,0 km/h
09.10.2013 06:00 11,4 C 74 % 1020,7 hPa 0,0 l/m 0,0 km/h S-SW 6,9 C 11,4 C 0,0 km/h
09.10.2013 07:00 11,5 C 73 % 1020,5 hPa 0,0 l/m 0,0 km/h S-SW 6,8 C 11,5 C 0,0 km/h
09.10.2013 08:00 11,8 C 71 % 1020,6 hPa 0,0 l/m 0,0 km/h S-SW 6,7 C 11,8 C 0,0 km/h
09.10.2013 09:00 12,6 C 68 % 1020,4 hPa 0,0 l/m 0,0 km/h S-SW 6,9 C 12,6 C 0,0 km/h
09.10.2013 10:00 15,8 C 77 % 1020,6 hPa 0,0 l/m 0,0 km/h S-SW 11,8 C 15,8 C 0,0 km/h
09.10.2013 11:00 18,4 C 76 % 1020,3 hPa 0,0 l/m 0,0 km/h W 14,1 C 18,4 C 0,0 km/h
09.10.2013 12:00 18,8 C 63 % 1019,6 hPa 0,0 l/m 0,0 km/h W-NW 11,6 C 18,8 C 0,0 km/h
09.10.2013 13:00 18,1 C 59 % 1018,8 hPa 0,0 l/m 1,9 km/h N-NW 10,0 C 18,1 C 1,1 km/h
09.10.2013 14:00 16,1 C 67 % 1018,1 hPa 0,0 l/m 3,9 km/h W-NW 10,0 C 16,1 C 2,2 km/h
09.10.2013 15:00 15,7 C 70 % 1017,4 hPa 0,0 l/m 0,0 km/h W 10,2 C 15,7 C 0,0 km/h
09.10.2013 16:00 15,6 C 70 % 1016,7 hPa 0,0 l/m 0,0 km/h S-SW 10,1 C 15,6 C 0,0 km/h
09.10.2013 17:00 15,3 C 72 % 1015,8 hPa 0,0 l/m 0,0 km/h W-SW 10,3 C 15,3 C 0,0 km/h
09.10.2013 18:00 14,4 C 75 % 1015,4 hPa 0,0 l/m 0,0 km/h SW 10,0 C 14,4 C 0,0 km/h
09.10.2013 19:00 13,2 C 79 % 1015,5 hPa 0,0 l/m 0,0 km/h S 9,6 C 13,2 C 0,0 km/h
09.10.2013 20:00 12,8 C 82 % 1015,1 hPa 0,0 l/m 9,1 km/h S 9,8 C 11,2 C 5,0 km/h
09.10.2013 21:00 12,4 C 82 % 1014,7 hPa 0,0 l/m 1,3 km/h S 9,4 C 12,4 C 0,7 km/h
09.10.2013 22:00 12,7 C 82 % 1014,4 hPa 0,0 l/m 0,0 km/h S-SW 9,7 C 12,7 C 0,0 km/h
09.10.2013 23:00 13,4 C 78 % 1013,5 hPa 0,0 l/m 0,6 km/h SW 9,6 C 13,4 C 0,4 km/h
10.10.2013 00:00 13,4 C 76 % 1012,5 hPa 0,0 l/m 6,5 km/h S-SW 9,3 C 13,4 C 3,6 km/h
10.10.2013 01:00 13,6 C 75 % 1011,8 hPa 0,0 l/m 13,0 km/h SW 9,3 C 10,2 C 7,2 km/h
10.10.2013 02:00 13,4 C 75 % 1010,8 hPa 0,0 l/m 18,8 km/h S-SW 9,1 C 8,0 C 10,4 km/h
10.10.2013 03:00 12,8 C 79 % 1009,6 hPa 0,0 l/m 16,2 km/h S-SW 9,2 C 8,1 C 9,0 km/h
10.10.2013 04:00 12,9 C 80 % 1008,5 hPa 0,0 l/m 22,7 km/h S-SW 9,5 C 6,3 C 12,6 km/h
10.10.2013 05:00 12,8 C 79 % 1007,2 hPa 0,0 l/m 17,5 km/h W-SW 9,2 C 7,7 C 9,7 km/h
10.10.2013 06:00 11,3 C 84 % 1006,5 hPa 1,6 l/m 1,9 km/h W 8,7 C 11,3 C 1,1 km/h
10.10.2013 07:00 11,0 C 82 % 1005,6 hPa 1,0 l/m 1,9 km/h W 8,0 C 11,0 C 1,1 km/h
10.10.2013 08:00 10,9 C 78 % 1005,6 hPa 4,1 l/m 1,3 km/h N-NO 7,2 C 10,9 C 0,7 km/h
10.10.2013 09:00 7,9 C 82 % 1007,8 hPa 5,7 l/m 1,9 km/h NO 5,0 C 7,9 C 1,1 km/h
10.10.2013 10:00 5,8 C 84 % 1009,2 hPa 3,6 l/m 0,0 km/h SO 3,3 C 5,8 C 0,0 km/h
10.10.2013 11:00 5,8 C 83 % 1009,1 hPa 1,6 l/m 0,0 km/h S-SO 3,1 C 5,8 C 0,0 km/h
10.10.2013 12:00 6,6 C 84 % 1009,1 hPa 0,5 l/m 0,0 km/h S 4,1 C 6,6 C 0,0 km/h
10.10.2013 13:00 9,9 C 82 % 1008,9 hPa 0,0 l/m 8,4 km/h W 7,0 C 8,5 C 4,7 km/h
10.10.2013 14:00 8,4 C 81 % 1009,3 hPa 0,0 l/m 0,0 km/h W-SW 5,3 C 8,4 C 0,0 km/h
10.10.2013 15:00 10,7 C 76 % 1009,3 hPa 0,0 l/m 1,9 km/h W 6,6 C 10,7 C 1,1 km/h
10.10.2013 16:00 14,2 C 66 % 1009,1 hPa 0,0 l/m 5,2 km/h W 7,9 C 14,2 C 2,9 km/h
10.10.2013 17:00 11,2 C 70 % 1009,1 hPa 0,0 l/m 6,5 km/h SW 5,9 C 11,2 C 3,6 km/h
10.10.2013 18:00 9,1 C 77 % 1009,5 hPa 0,0 l/m 1,3 km/h W-NW 5,3 C 9,1 C 0,7 km/h
10.10.2013 19:00 7,0 C 82 % 1009,8 hPa 0,5 l/m 0,6 km/h SO 4,1 C 7,0 C 0,4 km/h
10.10.2013 20:00 6,0 C 84 % 1010,1 hPa 0,5 l/m 0,0 km/h O 3,5 C 6,0 C 0,0 km/h
10.10.2013 21:00 6,1 C 84 % 1009,9 hPa 0,0 l/m 0,0 km/h SO 3,6 C 6,1 C 0,0 km/h
10.10.2013 22:00 6,1 C 83 % 1009,8 hPa 2,1 l/m 1,3 km/h S-SO 3,4 C 6,1 C 0,7 km/h
10.10.2013 23:00 5,9 C 82 % 1010,1 hPa 0,0 l/m 0,0 km/h S-SO 3,1 C 5,9 C 0,0 km/h
11.10.2013 00:00 5,9 C 81 % 1009,5 hPa 0,0 l/m 0,0 km/h O-SO 2,9 C 5,9 C 0,0 km/h
11.10.2013 01:00 5,4 C 81 % 1008,9 hPa 0,0 l/m 0,0 km/h SO 2,4 C 5,4 C 0,0 km/h
11.10.2013 02:00 5,4 C 81 % 1009,4 hPa 0,5 l/m 0,0 km/h SO 2,4 C 5,4 C 0,0 km/h
11.10.2013 03:00 5,2 C 80 % 1008,8 hPa 0,0 l/m 0,0 km/h O-SO 2,0 C 5,2 C 0,0 km/h
11.10.2013 04:00 5,8 C 78 % 1008,6 hPa 0,0 l/m 0,0 km/h SO 2,3 C 5,8 C 0,0 km/h
11.10.2013 05:00 5,8 C 78 % 1008,8 hPa 0,0 l/m 0,0 km/h SO 2,3 C 5,8 C 0,0 km/h
11.10.2013 06:00 5,6 C 77 % 1009,0 hPa 0,0 l/m 0,0 km/h S-SO 1,9 C 5,6 C 0,0 km/h
11.10.2013 07:00 5,5 C 77 % 1009,3 hPa 0,0 l/m 0,0 km/h S-SO 1,8 C 5,5 C 0,0 km/h
11.10.2013 08:00 5,1 C 78 % 1009,6 hPa 0,0 l/m 0,0 km/h SO 1,6 C 5,1 C 0,0 km/h
11.10.2013 09:00 6,6 C 74 % 1010,3 hPa 0,0 l/m 0,0 km/h NO 2,3 C 6,6 C 0,0 km/h
11.10.2013 10:00 7,8 C 79 % 1010,9 hPa 0,0 l/m 0,0 km/h NW 4,4 C 7,8 C 0,0 km/h
11.10.2013 11:00 10,9 C 83 % 1011,0 hPa 0,0 l/m 0,0 km/h N-NW 8,1 C 10,9 C 0,0 km/h
11.10.2013 12:00 10,8 C 79 % 1011,0 hPa 0,0 l/m 0,0 km/h W 7,3 C 10,8 C 0,0 km/h
11.10.2013 13:00 15,6 C 64 % 1011,1 hPa 0,0 l/m 1,9 km/h N-NW 8,8 C 15,6 C 1,1 km/h
11.10.2013 14:00 13,3 C 66 % 1010,9 hPa 0,0 l/m 0,0 km/h S-SO 7,1 C 13,3 C 0,0 km/h
11.10.2013 15:00 9,9 C 77 % 1011,2 hPa 0,0 l/m 3,9 km/h SO 6,1 C 9,9 C 2,2 km/h
11.10.2013 16:00 9,9 C 76 % 1011,2 hPa 0,0 l/m 7,1 km/h NW 5,9 C 9,4 C 4,0 km/h
11.10.2013 17:00 7,6 C 84 % 1011,9 hPa 0,0 l/m 0,0 km/h SW 5,1 C 7,6 C 0,0 km/h
11.10.2013 18:00 7,9 C 84 % 1011,9 hPa 0,5 l/m 0,0 km/h SO 5,4 C 7,9 C 0,0 km/h
11.10.2013 19:00 6,9 C 85 % 1012,3 hPa 0,0 l/m 0,0 km/h S-SO 4,6 C 6,9 C 0,0 km/h
11.10.2013 20:00 6,9 C 84 % 1012,7 hPa 0,0 l/m 0,0 km/h SO 4,4 C 6,9 C 0,0 km/h
11.10.2013 21:00 6,9 C 82 % 1012,7 hPa 0,0 l/m 0,0 km/h SO 4,0 C 6,9 C 0,0 km/h
11.10.2013 22:00 5,6 C 83 % 1013,0 hPa 0,0 l/m 0,0 km/h SO 2,9 C 5,6 C 0,0 km/h
11.10.2013 23:00 4,6 C 83 % 1012,8 hPa 0,0 l/m 0,0 km/h O-NO 2,0 C 4,6 C 0,0 km/h
12.10.2013 00:00 3,4 C 83 % 1013,5 hPa 0,0 l/m 0,0 km/h O-NO 0,8 C 3,4 C 0,0 km/h
12.10.2013 01:00 3,7 C 81 % 1013,8 hPa 0,0 l/m 0,0 km/h S-SO 0,7 C 3,7 C 0,0 km/h
12.10.2013 02:00 4,2 C 79 % 1013,6 hPa 0,0 l/m 25,3 km/h SO 0,9 C -6,1 C 14,0 km/h
12.10.2013 03:00 4,1 C 78 % 1013,6 hPa 0,0 l/m 0,0 km/h SO 0,6 C 4,1 C 0,0 km/h
12.10.2013 04:00 3,9 C 77 % 1013,4 hPa 0,0 l/m 0,0 km/h SO 0,2 C 3,9 C 0,0 km/h
12.10.2013 05:00 3,7 C 77 % 1013,7 hPa 0,0 l/m 0,0 km/h SO 0,1 C 3,7 C 0,0 km/h
12.10.2013 06:00 3,9 C 75 % 1013,4 hPa 0,0 l/m 0,0 km/h SO -0,1 C 3,9 C 0,0 km/h
12.10.2013 07:00 4,2 C 74 % 1013,8 hPa 0,0 l/m 0,0 km/h S-SO -0,0 C 4,2 C 0,0 km/h
12.10.2013 08:00 4,6 C 72 % 1013,9 hPa 0,0 l/m 0,0 km/h S-SO -0,0 C 4,6 C 0,0 km/h
12.10.2013 09:00 5,3 C 70 % 1014,8 hPa 0,0 l/m 0,0 km/h N-NW 0,3 C 5,3 C 0,0 km/h
12.10.2013 10:00 5,5 C 72 % 1014,9 hPa 0,0 l/m 0,0 km/h W-NW 0,9 C 5,5 C 0,0 km/h
12.10.2013 11:00 6,1 C 78 % 1015,1 hPa 0,0 l/m 1,9 km/h N-NW 2,6 C 6,1 C 1,1 km/h
12.10.2013 12:00 5,5 C 82 % 1015,4 hPa 0,0 l/m 2,6 km/h N-NW 2,7 C 5,5 C 1,4 km/h
12.10.2013 13:00 6,5 C 81 % 1015,4 hPa 0,0 l/m 1,9 km/h W 3,5 C 6,5 C 1,1 km/h
12.10.2013 14:00 7,9 C 85 % 1015,3 hPa 0,0 l/m 0,0 km/h N-NO 5,5 C 7,9 C 0,0 km/h
12.10.2013 15:00 13,8 C 74 % 1014,7 hPa 0,0 l/m 0,0 km/h W 9,2 C 13,8 C 0,0 km/h
12.10.2013 16:00 15,1 C 65 % 1014,6 hPa 0,0 l/m 0,0 km/h W-NW 8,6 C 15,1 C 0,0 km/h
12.10.2013 17:00 12,8 C 65 % 1014,3 hPa 0,0 l/m 11,0 km/h W-NW 6,4 C 10,2 C 6,1 km/h
12.10.2013 18:00 6,5 C 82 % 1013,9 hPa 0,0 l/m 0,0 km/h W-NW 3,7 C 6,5 C 0,0 km/h
12.10.2013 19:00 4,8 C 85 % 1014,4 hPa 0,0 l/m 0,0 km/h W-NW 2,5 C 4,8 C 0,0 km/h
12.10.2013 20:00 4,2 C 85 % 1014,3 hPa 0,0 l/m 0,0 km/h W-NW 1,9 C 4,2 C 0,0 km/h
12.10.2013 21:00 4,9 C 82 % 1014,7 hPa 0,0 l/m 0,0 km/h W-NW 2,1 C 4,9 C 0,0 km/h
12.10.2013 22:00 5,2 C 82 % 1015,3 hPa 0,0 l/m 0,0 km/h W-NW 2,4 C 5,2 C 0,0 km/h
12.10.2013 23:00 5,5 C 82 % 1015,5 hPa 0,0 l/m 0,0 km/h W-NW 2,7 C 5,5 C 0,0 km/h
13.10.2013 00:00 5,6 C 81 % 1015,8 hPa 0,5 l/m 0,0 km/h W-NW 2,6 C 5,6 C 0,0 km/h
13.10.2013 01:00 5,8 C 81 % 1016,2 hPa 0,0 l/m 0,0 km/h W-NW 2,8 C 5,8 C 0,0 km/h
13.10.2013 02:00 5,9 C 80 % 1016,6 hPa 0,5 l/m 0,0 km/h W-NW 2,7 C 5,9 C 0,0 km/h
13.10.2013 03:00 6,1 C 80 % 1016,9 hPa 0,0 l/m 0,0 km/h W 2,9 C 6,1 C 0,0 km/h
13.10.2013 04:00 6,4 C 83 % 1017,1 hPa 0,0 l/m 0,0 km/h W-SW 3,7 C 6,4 C 0,0 km/h
13.10.2013 05:00 6,4 C 85 % 1017,5 hPa 0,0 l/m 1,3 km/h SW 4,1 C 6,4 C 0,7 km/h
13.10.2013 06:00 6,3 C 85 % 1017,9 hPa 0,0 l/m 0,0 km/h S 4,0 C 6,3 C 0,0 km/h
13.10.2013 07:00 6,2 C 84 % 1017,9 hPa 0,0 l/m 3,9 km/h S 3,7 C 6,2 C 2,2 km/h
13.10.2013 08:00 5,9 C 83 % 1018,0 hPa 0,0 l/m 0,0 km/h S-SW 3,2 C 5,9 C 0,0 km/h
13.10.2013 09:00 7,9 C 82 % 1018,7 hPa 0,0 l/m 0,0 km/h W 5,0 C 7,9 C 0,0 km/h
13.10.2013 10:00 12,2 C 66 % 1018,2 hPa 0,0 l/m 3,9 km/h NW 6,0 C 12,2 C 2,2 km/h
13.10.2013 11:00 15,4 C 59 % 1017,7 hPa 0,0 l/m 2,6 km/h W 7,4 C 15,4 C 1,4 km/h
13.10.2013 12:00 15,4 C 55 % 1017,4 hPa 0,0 l/m 0,0 km/h N 6,4 C 15,4 C 0,0 km/h
13.10.2013 13:00 15,9 C 55 % 1016,9 hPa 0,0 l/m 0,0 km/h W-NW 6,9 C 15,9 C 0,0 km/h
13.10.2013 14:00 15,8 C 57 % 1016,8 hPa 0,0 l/m 7,1 km/h O-NO 7,3 C 15,4 C 4,0 km/h
13.10.2013 15:00 15,1 C 59 % 1016,3 hPa 0,0 l/m 0,0 km/h S-SO 7,1 C 15,1 C 0,0 km/h
13.10.2013 16:00 15,3 C 61 % 1015,8 hPa 0,0 l/m 0,0 km/h NO 7,8 C 15,3 C 0,0 km/h
13.10.2013 17:00 19,0 C 50 % 1015,7 hPa 0,0 l/m 0,0 km/h S-SO 8,3 C 19,0 C 0,0 km/h
13.10.2013 18:00 14,1 C 61 % 1015,7 hPa 0,0 l/m 0,0 km/h O-SO 6,7 C 14,1 C 0,0 km/h
13.10.2013 19:00 7,9 C 77 % 1015,8 hPa 0,0 l/m 0,0 km/h SO 4,1 C 7,9 C 0,0 km/h
13.10.2013 20:00 7,2 C 84 % 1016,2 hPa 0,0 l/m 0,0 km/h SO 4,7 C 7,2 C 0,0 km/h
13.10.2013 21:00 7,0 C 84 % 1015,9 hPa 0,0 l/m 0,0 km/h O-NO 4,5 C 7,0 C 0,0 km/h
13.10.2013 22:00 7,1 C 84 % 1016,2 hPa 0,0 l/m 0,0 km/h O-SO 4,6 C 7,1 C 0,0 km/h
13.10.2013 23:00 7,9 C 83 % 1016,0 hPa 0,0 l/m 0,0 km/h SO 5,2 C 7,9 C 0,0 km/h
Min-Datum _ 12.10.13 13.10.13 10.10.13 - 07.10.13 - 12.10.13 12.10.13 07.10.13
_ Min-Zeit 00:19 17:19 07:19 - 00:19 - 06:19 02:19 00:19
Minimum _ 3,4 C 50 % 1005,6 hPa - 0,0 km/h - -0,1 C -6,1 C 0,0 km/h
Max-Datum _ 07.10.13 11.10.13 07.10.13 10.10.13 12.10.13 - 07.10.13 07.10.13 12.10.13
_ Max-Zeit 11:19 19:19 00:19 09:19 02:19 - 11:19 11:19 02:19
Maximum _ 19,2 C 85 % 1022,8 hPa 5,7 l/m 25,3 km/h
SO
- 14,4 C 19,2 C 14,0 km/h
SO
Durchschnitt _ 10,5 C 77 % 1016,2 hPa #23,3 l/m 1,4 km/h W-NW 6,6 C 10,3 C 0,8 km/h
www.sexauwetter.de